Time;durP1;ratioP1;P1;durP2;ratioP2;P2;SDS_P1;SDS_P2;PMS_P1;PMS_P2;Temp;Humidity;BMP_temperature;BMP_pressure;BME280_temperature;BME280_humidity;BME280_pressure;Samples;Min_cycle;Max_cycle;Signal;HPM_P1;HPM_P2
2022/08/12 00:44:33;;;;;;;6.90;2.87;;;19.50;57.60;;;;;;5197834;28;20481;-53
2022/08/12 00:47:05;;;;;;;2.70;2.50;;;19.40;57.60;;;;;;5202975;28;20434;-50
2022/08/12 00:49:36;;;;;;;2.87;1.90;;;19.40;57.70;;;;;;5203536;28;20348;-50
2022/08/12 00:52:10;;;;;;;2.50;2.30;;;19.40;57.90;;;;;;5202822;28;20454;-49
2022/08/12 00:54:46;;;;;;;2.90;2.70;;;19.40;58.10;;;;;;5201262;28;20956;-49
2022/08/12 00:57:20;;;;;;;2.43;2.33;;;19.30;58.10;;;;;;5217968;28;20435;-51
2022/08/12 00:59:54;;;;;;;6.43;1.93;;;19.30;58.30;;;;;;5200703;28;20926;-49
2022/08/12 01:02:37;;;;;;;12.53;3.10;;;19.30;58.50;;;;;;5201023;28;20497;-49
2022/08/12 01:13:49;;;;;;;4.73;3.07;;;19.10;59.20;;;;;;5200189;28;20421;-50
2022/08/12 01:16:22;;;;;;;2.50;2.40;;;19.10;59.40;;;;;;5199681;28;20437;-50
2022/08/12 01:18:55;;;;;;;3.57;2.90;;;19.10;59.50;;;;;;5199042;28;20438;-51
2022/08/12 01:21:26;;;;;;;3.53;2.70;;;19.10;59.70;;;;;;5215693;28;20462;-50
2022/08/12 01:24:22;;;;;;;2.57;2.40;;;19.10;59.70;;;;;;5205176;28;20791;-50
2022/08/12 01:26:54;;;;;;;7.63;3.43;;;19.10;59.60;;;;;;5183697;28;20199;-51
2022/08/12 01:29:33;;;;;;;2.63;2.53;;;19.00;59.60;;;;;;5214254;28;20528;-50
2022/08/12 01:32:07;;;;;;;2.53;2.33;;;19.00;59.40;;;;;;5199395;28;20454;-50
2022/08/12 01:34:41;;;;;;;2.70;2.60;;;19.00;59.10;;;;;;5196984;28;20964;-50
2022/08/12 01:37:13;;;;;;;3.90;2.50;;;19.00;59.10;;;;;;5200960;28;20430;-50
2022/08/12 01:39:53;;;;;;;10.20;2.83;;;19.10;59.00;;;;;;5201483;28;20437;-51
2022/08/12 01:42:25;;;;;;;4.17;2.40;;;19.00;59.00;;;;;;5196801;28;20462;-49
2022/08/12 01:44:57;;;;;;;2.00;1.90;;;19.00;58.70;;;;;;5198621;28;20462;-51
2022/08/12 01:47:30;;;;;;;2.77;2.67;;;19.00;59.00;;;;;;5198320;28;20443;-50
2022/08/12 01:50:10;;;;;;;3.83;2.63;;;18.90;58.90;;;;;;5196550;28;21195;-51
2022/08/12 01:52:47;;;;;;;2.27;2.17;;;18.90;59.00;;;;;;5203263;28;20466;-51
2022/08/12 01:55:24;;;;;;;2.37;2.17;;;18.90;58.90;;;;;;5197410;28;20471;-52
2022/08/12 01:58:05;;;;;;;2.20;2.10;;;18.90;58.70;;;;;;5200336;28;20930;-50
2022/08/12 02:00:47;;;;;;;2.17;1.97;;;18.90;58.70;;;;;;5196447;28;20918;-50
2022/08/12 02:12:57;;;;;;;5.60;2.40;;;18.90;58.20;;;;;;5200952;28;20465;-49
2022/08/12 02:15:40;;;;;;;3.50;2.13;;;18.90;58.30;;;;;;5201223;28;20533;-50
2022/08/12 02:18:27;;;;;;;3.43;2.63;;;18.90;58.40;;;;;;5197055;28;20459;-50
2022/08/12 02:21:15;;;;;;;2.70;2.50;;;18.80;58.50;;;;;;5197676;28;20452;-50
2022/08/12 02:23:48;;;;;;;7.90;2.60;;;18.80;58.40;;;;;;5195199;28;20459;-50
2022/08/12 02:26:21;;;;;;;2.67;2.33;;;18.80;58.30;;;;;;5199603;28;20473;-53
2022/08/12 02:28:52;;;;;;;4.20;2.57;;;18.80;58.10;;;;;;5218418;28;20816;-49
2022/08/12 02:31:28;;;;;;;2.40;2.20;;;18.80;58.10;;;;;;5199336;28;20435;-49
2022/08/12 02:34:00;;;;;;;2.03;1.93;;;18.70;57.90;;;;;;5196814;28;20183;-50
2022/08/12 02:36:31;;;;;;;2.43;2.33;;;18.70;57.80;;;;;;5197418;28;20501;-53
2022/08/12 02:39:04;;;;;;;2.27;2.17;;;18.70;57.80;;;;;;5197649;28;20470;-50
2022/08/12 02:41:41;;;;;;;2.30;2.20;;;18.70;57.90;;;;;;5216830;28;20461;-50
2022/08/12 02:44:16;;;;;;;4.90;2.90;;;18.70;58.10;;;;;;5199984;28;20500;-52
2022/08/12 02:46:49;;;;;;;3.20;2.37;;;18.70;58.10;;;;;;5196505;28;20470;-50
2022/08/12 02:49:34;;;;;;;7.97;2.97;;;18.60;58.00;;;;;;5206721;28;20849;-49
2022/08/12 02:52:06;;;;;;;2.60;2.10;;;18.60;58.00;;;;;;5203539;28;20838;-52
2022/08/12 02:54:39;;;;;;;2.10;2.00;;;18.60;58.10;;;;;;5197824;28;20724;-49
2022/08/12 02:57:12;;;;;;;4.33;2.80;;;18.60;58.20;;;;;;5205427;28;20777;-51
2022/08/12 02:59:42;;;;;;;9.83;2.90;;;18.50;58.10;;;;;;5206051;28;20434;-51
2022/08/12 03:02:18;;;;;;;6.40;2.63;;;18.50;58.10;;;;;;5206205;28;20474;-53
2022/08/12 03:04:55;;;;;;;5.50;2.20;;;18.50;58.20;;;;;;5204499;28;20282;-50
2022/08/12 03:07:26;;;;;;;9.00;3.00;;;18.50;58.30;;;;;;5201932;28;20441;-50
2022/08/12 03:10:02;;;;;;;6.73;2.57;;;18.40;58.40;;;;;;5200267;28;20426;-50
2022/08/12 03:12:37;;;;;;;2.30;2.07;;;18.40;58.70;;;;;;5200435;28;20213;-51
2022/08/12 03:15:11;;;;;;;2.93;2.73;;;18.40;58.80;;;;;;5201257;28;20487;-54
2022/08/12 03:17:54;;;;;;;7.90;2.60;;;18.40;59.10;;;;;;5206603;28;21289;-50
2022/08/12 03:20:24;;;;;;;5.77;3.30;;;18.40;59.20;;;;;;5203288;28;20434;-52
2022/08/12 03:22:59;;;;;;;2.40;2.23;;;18.30;59.30;;;;;;5203034;28;20469;-51
2022/08/12 03:25:33;;;;;;;2.73;2.53;;;18.30;59.30;;;;;;5198721;28;20297;-51
2022/08/12 03:28:07;;;;;;;8.90;2.63;;;18.30;59.30;;;;;;5203073;28;20806;-51
2022/08/12 03:30:41;;;;;;;14.30;2.93;;;18.20;59.30;;;;;;5200636;28;20484;-52
2022/08/12 03:33:14;;;;;;;7.93;3.00;;;18.20;59.40;;;;;;5205037;28;20465;-49
2022/08/12 03:35:47;;;;;;;4.70;2.30;;;18.20;59.60;;;;;;5194767;28;20460;-51
2022/08/12 03:38:22;;;;;;;6.83;2.83;;;18.20;59.70;;;;;;5205325;28;20468;-49
2022/08/12 04:01:22;;;;;;;9.33;3.07;;;18.10;60.30;;;;;;5202415;28;20477;-50
2022/08/12 04:03:53;;;;;;;3.57;2.47;;;18.10;61.00;;;;;;5197742;28;20447;-51
2022/08/12 04:06:27;;;;;;;5.90;2.33;;;18.10;61.20;;;;;;5202739;28;20840;-51
2022/08/12 04:08:58;;;;;;;3.93;2.70;;;18.10;61.60;;;;;;5193215;28;23021;-49
2022/08/12 04:14:19;;;;;;;4.00;3.10;;;18.10;62.20;;;;;;5197307;28;20426;-51
2022/08/12 04:16:50;;;;;;;3.07;2.83;;;18.10;62.20;;;;;;5201188;28;20473;-50
2022/08/12 04:19:23;;;;;;;11.30;3.50;;;18.20;62.50;;;;;;5202631;28;20462;-50
2022/08/12 04:21:54;;;;;;;4.20;3.37;;;18.20;62.60;;;;;;5202800;28;20566;-50
2022/08/12 04:24:26;;;;;;;3.30;3.00;;;18.20;62.70;;;;;;5198927;28;20434;-50
2022/08/12 04:26:56;;;;;;;8.40;3.40;;;18.20;62.60;;;;;;5201779;28;20548;-50
2022/08/12 04:29:27;;;;;;;3.10;2.90;;;18.20;62.60;;;;;;5197920;28;20431;-49
2022/08/12 04:31:58;;;;;;;11.70;3.10;;;18.30;62.70;;;;;;5200625;28;20195;-50
2022/08/12 04:34:28;;;;;;;4.03;3.23;;;18.30;62.60;;;;;;5193295;28;20589;-52
2022/08/12 04:36:59;;;;;;;4.67;3.13;;;18.30;62.70;;;;;;5198234;28;20188;-50
2022/08/12 04:39:30;;;;;;;4.17;3.30;;;18.30;62.40;;;;;;5201774;28;20187;-50
2022/08/12 04:42:00;;;;;;;3.83;3.03;;;18.40;62.60;;;;;;5185930;28;20200;-50
2022/08/12 04:44:33;;;;;;;3.63;3.33;;;18.40;62.40;;;;;;5202736;28;20286;-49
2022/08/12 04:47:04;;;;;;;4.10;3.33;;;18.40;62.10;;;;;;5198807;28;20981;-50
2022/08/12 04:49:35;;;;;;;4.53;2.73;;;18.50;61.80;;;;;;5195382;28;20446;-53
2022/08/12 04:52:06;;;;;;;6.87;3.20;;;18.60;61.80;;;;;;5194558;28;20204;-50
2022/08/12 04:54:37;;;;;;;4.13;3.47;;;18.60;61.40;;;;;;5201685;28;20438;-50
2022/08/12 04:57:08;;;;;;;3.83;3.33;;;18.80;61.10;;;;;;5174082;28;20199;-52
2022/08/12 04:59:38;;;;;;;9.30;3.40;;;19.00;60.60;;;;;;5200735;28;20434;-50
2022/08/12 05:02:09;;;;;;;5.47;3.47;;;19.10;60.30;;;;;;5201147;28;20219;-49
2022/08/12 05:04:40;;;;;;;14.60;3.57;;;19.20;59.70;;;;;;5212679;28;20660;-51
2022/08/12 05:07:11;;;;;;;3.07;2.60;;;19.30;59.40;;;;;;5217479;28;20639;-51
2022/08/12 05:09:42;;;;;;;5.97;3.10;;;19.40;58.70;;;;;;5197457;28;20487;-52
2022/08/12 05:12:13;;;;;;;4.87;3.10;;;19.70;58.50;;;;;;5197384;28;20465;-52
2022/08/12 05:14:43;;;;;;;2.90;2.70;;;20.10;57.30;;;;;;5195980;28;20585;-50
2022/08/12 05:17:14;;;;;;;5.13;3.30;;;20.60;56.30;;;;;;5197923;28;20237;-51
2022/08/12 05:19:44;;;;;;;3.03;2.60;;;21.80;54.40;;;;;;5196515;28;20180;-51
2022/08/12 05:22:15;;;;;;;5.97;3.00;;;22.30;52.30;;;;;;5200908;28;20210;-50
2022/08/12 05:24:46;;;;;;;4.47;3.97;;;22.70;52.40;;;;;;5205336;28;20207;-51
2022/08/12 05:27:17;;;;;;;3.03;2.30;;;24.70;48.20;;;;;;5200650;28;20276;-50
2022/08/12 05:29:48;;;;;;;3.40;3.10;;;26.30;44.50;;;;;;5198830;28;20533;-51
2022/08/12 05:32:19;;;;;;;7.43;3.40;;;27.80;41.90;;;;;;5196599;28;20454;-50
2022/08/12 05:34:52;;;;;;;3.23;2.93;;;28.90;38.90;;;;;;5183083;28;20442;-50
2022/08/12 05:37:23;;;;;;;11.90;2.50;;;29.70;37.00;;;;;;5203259;28;20663;-51
2022/08/12 05:39:54;;;;;;;10.90;2.93;;;30.30;35.50;;;;;;5196394;28;20534;-51
2022/08/12 05:42:24;;;;;;;2.67;2.47;;;30.90;34.10;;;;;;5200140;28;21001;-50
2022/08/12 05:44:55;;;;;;;3.73;2.60;;;30.90;34.00;;;;;;5205436;28;20276;-49
2022/08/12 05:47:27;;;;;;;4.30;2.70;;;31.40;33.50;;;;;;5217087;28;20183;-51
2022/08/12 05:49:58;;;;;;;3.37;2.33;;;32.10;32.40;;;;;;5202493;28;20187;-50
2022/08/12 05:52:29;;;;;;;12.53;3.43;;;32.80;32.00;;;;;;5198251;28;20452;-52
2022/08/12 05:54:59;;;;;;;3.63;2.03;;;33.50;30.50;;;;;;5204734;28;20180;-50
2022/08/12 05:57:30;;;;;;;8.10;2.50;;;34.30;29.60;;;;;;5197303;28;20187;-53
2022/08/12 06:00:02;;;;;;;4.73;2.80;;;35.10;28.70;;;;;;5178681;28;20195;-51
2022/08/12 06:02:33;;;;;;;4.40;2.20;;;35.90;28.00;;;;;;5189569;28;20242;-51
2022/08/12 06:05:09;;;;;;;4.20;2.57;;;36.30;27.40;;;;;;5189404;28;20222;-51
2022/08/12 06:07:44;;;;;;;4.68;2.33;;;36.80;26.40;;;;;;5199445;28;20197;-51
2022/08/12 06:10:18;;;;;;;17.40;3.42;;;37.30;26.10;;;;;;5199745;28;20865;-50
2022/08/12 06:12:49;;;;;;;2.40;2.00;;;37.00;25.60;;;;;;5197325;28;20210;-51
2022/08/12 06:15:21;;;;;;;4.85;2.55;;;36.80;25.90;;;;;;5200640;28;20201;-51
2022/08/12 06:17:52;;;;;;;3.50;2.20;;;37.60;25.70;;;;;;5179901;28;20179;-50
2022/08/12 06:20:22;;;;;;;12.48;2.97;;;38.40;25.10;;;;;;5191821;28;20183;-54
2022/08/12 06:22:53;;;;;;;10.15;2.83;;;39.00;24.50;;;;;;5195980;28;20214;-51
2022/08/12 06:25:27;;;;;;;13.95;3.03;;;39.10;24.20;;;;;;5200449;28;20504;-51
2022/08/12 06:27:59;;;;;;;1.98;1.88;;;39.70;23.70;;;;;;5198201;28;20195;-52
2022/08/12 06:30:30;;;;;;;8.13;1.90;;;40.00;23.50;;;;;;5226770;28;20167;-53
2022/08/12 06:33:03;;;;;;;8.32;2.78;;;40.30;23.10;;;;;;5192797;28;20690;-53
2022/08/12 06:35:34;;;;;;;4.88;2.13;;;40.30;22.80;;;;;;5182112;28;20187;-51
2022/08/12 06:38:12;;;;;;;2.28;2.13;;;40.10;22.60;;;;;;5193681;28;20183;-51
2022/08/12 06:43:34;;;;;;;5.78;2.08;;;40.60;22.50;;;;;;5200700;28;20240;-51
2022/08/12 06:46:04;;;;;;;10.77;2.00;;;40.90;22.30;;;;;;5202536;28;20245;-51
2022/08/12 06:48:36;;;;;;;3.33;1.27;;;41.40;22.10;;;;;;5201201;28;20206;-53
2022/08/12 06:51:07;;;;;;;5.18;2.30;;;42.00;21.90;;;;;;5200126;28;20213;-50
2022/08/12 06:53:37;;;;;;;2.42;1.58;;;42.80;21.10;;;;;;5195533;28;20194;-52
2022/08/12 06:56:08;;;;;;;7.10;1.90;;;43.20;20.60;;;;;;5201358;28;20171;-49
2022/08/12 06:58:39;;;;;;;6.72;1.50;;;42.20;20.40;;;;;;5198666;28;20234;-54
2022/08/12 07:01:10;;;;;;;5.82;2.05;;;41.10;21.00;;;;;;5199781;28;20234;-52
2022/08/12 07:03:41;;;;;;;5.88;1.58;;;40.60;21.60;;;;;;5097594;22;1069701;-51
2022/08/12 07:06:12;;;;;;;5.15;1.73;;;40.60;21.80;;;;;;5087137;28;20222;-51
2022/08/12 07:08:43;;;;;;;1.73;1.63;;;41.60;21.40;;;;;;5107851;28;20674;-52
2022/08/12 07:11:14;;;;;;;4.85;1.63;;;42.60;21.10;;;;;;5093320;28;20209;-51
2022/08/12 07:13:49;;;;;;;3.50;1.38;;;42.90;20.20;;;;;;5097647;28;20210;-53
2022/08/12 07:16:20;;;;;;;1.30;1.27;;;42.20;20.30;;;;;;5097964;28;20538;-51
2022/08/12 07:18:52;;;;;;;8.95;2.17;;;42.20;20.50;;;;;;5102321;28;20240;-52
2022/08/12 07:21:23;;;;;;;1.70;1.45;;;42.40;20.10;;;;;;5094519;29;20179;-51
2022/08/12 07:23:55;;;;;;;3.88;1.90;;;41.80;20.30;;;;;;5092590;28;20266;-51
2022/08/12 07:26:26;;;;;;;1.48;1.02;;;40.90;20.90;;;;;;5078437;28;20214;-52
2022/08/12 07:28:56;;;;;;;1.85;1.10;;;40.60;21.20;;;;;;5098157;28;20734;-53
2022/08/12 07:31:29;;;;;;;11.93;1.27;;;40.20;21.00;;;;;;5107755;28;20174;-52
2022/08/12 07:34:00;;;;;;;12.15;1.60;;;39.90;21.70;;;;;;5089345;28;20576;-52
2022/08/12 07:36:32;;;;;;;4.57;1.42;;;39.30;22.00;;;;;;5105709;28;20255;-51
2022/08/12 07:39:03;;;;;;;8.48;1.98;;;39.30;22.00;;;;;;5097377;28;20518;-51
2022/08/12 07:41:33;;;;;;;1.77;1.15;;;39.40;22.00;;;;;;5105759;29;20297;-50
2022/08/12 07:44:07;;;;;;;4.13;1.23;;;39.00;22.10;;;;;;5101666;28;20213;-52
2022/08/12 07:46:42;;;;;;;2.08;0.93;;;39.10;22.20;;;;;;5105241;28;20289;-50
2022/08/12 07:49:14;;;;;;;13.65;1.60;;;38.90;22.30;;;;;;5108637;28;20285;-50
2022/08/12 07:51:45;;;;;;;7.57;1.83;;;38.40;22.80;;;;;;5105542;28;20213;-51
2022/08/12 07:54:15;;;;;;;1.67;1.23;;;38.20;23.80;;;;;;5102587;28;20199;-51
2022/08/12 07:56:46;;;;;;;4.60;1.30;;;38.60;22.70;;;;;;5099803;28;20853;-50
2022/08/12 07:59:16;;;;;;;3.97;1.37;;;38.60;22.30;;;;;;5099507;28;20194;-51
2022/08/12 08:01:48;;;;;;;1.63;0.80;;;38.30;22.80;;;;;;5097461;28;20187;-52
2022/08/12 08:07:08;;;;;;;1.60;1.00;;;38.80;22.60;;;;;;5099675;29;20221;-51
2022/08/12 08:09:38;;;;;;;1.38;1.00;;;38.80;22.20;;;;;;5094445;28;20183;-51
2022/08/12 08:14:58;;;;;;;1.00;1.00;;;39.10;22.40;;;;;;5104790;29;20204;-51
2022/08/12 08:17:29;;;;;;;1.40;1.17;;;39.50;22.30;;;;;;5090333;28;20180;-51
2022/08/12 08:19:59;;;;;;;1.38;1.27;;;38.90;22.20;;;;;;5105222;28;20259;-51
2022/08/12 08:22:33;;;;;;;1.23;1.10;;;38.40;22.60;;;;;;5108080;28;20211;-51
2022/08/12 08:25:07;;;;;;;2.15;1.98;;;38.30;22.60;;;;;;5097493;28;20241;-51
2022/08/12 08:27:45;;;;;;;1.10;1.10;;;38.40;22.80;;;;;;5100784;28;20228;-51
2022/08/12 08:30:16;;;;;;;1.20;1.10;;;38.30;22.80;;;;;;5106575;28;20218;-50
2022/08/12 08:32:47;;;;;;;1.67;1.60;;;38.00;23.10;;;;;;5102504;28;20253;-50
2022/08/12 08:35:18;;;;;;;2.77;1.57;;;38.40;22.80;;;;;;5102725;28;20227;-50
2022/08/12 08:37:50;;;;;;;1.77;0.88;;;38.30;22.80;;;;;;5102073;28;20197;-51
2022/08/12 08:43:10;;;;;;;3.10;1.10;;;38.00;22.10;;;;;;5099421;28;20213;-50
2022/08/12 08:45:40;;;;;;;1.80;1.20;;;37.00;23.60;;;;;;5095171;28;20210;-53
2022/08/12 08:48:11;;;;;;;4.23;0.90;;;35.40;24.40;;;;;;5103235;28;20205;-51
2022/08/12 08:50:44;;;;;;;9.63;2.00;;;34.50;25.30;;;;;;5109281;28;20215;-50
2022/08/12 08:53:15;;;;;;;4.17;1.00;;;34.00;26.10;;;;;;5106894;28;20199;-51
2022/08/12 08:55:48;;;;;;;0.60;0.60;;;33.70;26.30;;;;;;5108691;28;20497;-50
2022/08/12 08:58:20;;;;;;;1.07;0.97;;;32.80;27.10;;;;;;5096620;28;20453;-50
2022/08/12 09:00:51;;;;;;;5.40;0.90;;;31.70;28.20;;;;;;5099046;28;20443;-49
2022/08/12 09:03:21;;;;;;;3.07;1.47;;;31.10;28.90;;;;;;5097719;28;20581;-50
2022/08/12 09:05:53;;;;;;;1.70;1.60;;;30.90;29.60;;;;;;5093401;28;20496;-50
2022/08/12 09:08:23;;;;;;;1.57;1.10;;;30.50;29.10;;;;;;5112262;28;20202;-51
2022/08/12 09:13:26;;;;;;;1.53;1.47;;;29.70;30.00;;;;;;5092362;28;20438;-52
2022/08/12 09:13:48;;;;;;;2.83;1.30;;;28.90;31.00;;;;;;5093966;28;20219;-50
2022/08/12 09:16:19;;;;;;;2.53;0.90;;;28.40;32.00;;;;;;5094421;28;20447;-49
2022/08/12 09:18:50;;;;;;;2.07;1.20;;;27.80;31.90;;;;;;5090816;28;20195;-57
2022/08/12 09:21:20;;;;;;;3.53;1.33;;;27.60;33.00;;;;;;5089156;28;20442;-50
2022/08/12 09:23:55;;;;;;;5.77;1.20;;;27.50;32.50;;;;;;5097212;28;20211;-51
2022/08/12 09:26:29;;;;;;;1.27;1.27;;;27.30;32.70;;;;;;5089410;28;20217;-51
2022/08/12 09:29:00;;;;;;;1.00;1.00;;;27.20;32.90;;;;;;5098036;28;20562;-51
2022/08/12 09:31:33;;;;;;;5.03;1.03;;;27.10;33.20;;;;;;5093683;28;20465;-51
2022/08/12 09:34:07;;;;;;;1.13;1.10;;;27.30;33.70;;;;;;5095093;28;20274;-50
2022/08/12 09:36:40;;;;;;;5.83;1.00;;;27.00;32.70;;;;;;5086460;28;20447;-51
2022/08/12 09:39:12;;;;;;;1.50;1.40;;;27.40;32.50;;;;;;5089217;28;21048;-49
2022/08/12 09:41:44;;;;;;;0.93;0.93;;;27.50;32.80;;;;;;5095028;28;20476;-51
2022/08/12 09:47:04;;;;;;;2.33;1.07;;;27.60;31.80;;;;;;5093838;28;20527;-50
2022/08/12 09:49:35;;;;;;;0.80;0.80;;;27.50;32.00;;;;;;5098223;28;20448;-51
2022/08/12 09:52:06;;;;;;;1.07;1.07;;;27.50;32.50;;;;;;5123995;28;20213;-51
2022/08/12 09:54:36;;;;;;;3.03;1.07;;;27.50;32.70;;;;;;5090559;28;20432;-51
2022/08/12 09:57:08;;;;;;;1.20;1.10;;;27.50;32.60;;;;;;5098662;28;20263;-50
2022/08/12 09:59:38;;;;;;;0.90;0.90;;;27.40;31.70;;;;;;5130145;28;20560;-50
2022/08/12 10:02:11;;;;;;;1.30;1.30;;;27.30;32.40;;;;;;5095506;28;20551;-51
2022/08/12 10:04:47;;;;;;;1.10;1.00;;;27.40;32.30;;;;;;5099076;28;20184;-51
2022/08/12 10:07:17;;;;;;;0.93;0.90;;;27.50;32.50;;;;;;5095903;28;20534;-51
2022/08/12 10:09:49;;;;;;;1.30;1.30;;;27.60;32.90;;;;;;5101168;28;20992;-51
2022/08/12 10:15:11;;;;;;;3.23;1.20;;;27.80;32.30;;;;;;5093832;28;20476;-50
2022/08/12 10:17:42;;;;;;;1.27;1.00;;;27.80;32.00;;;;;;5098032;28;20542;-51
2022/08/12 10:20:12;;;;;;;1.73;1.10;;;27.80;32.20;;;;;;5102910;28;20443;-50
2022/08/12 10:22:56;;;;;;;1.03;1.00;;;27.90;32.10;;;;;;5106862;28;20776;-50
2022/08/12 10:31:06;;;;;;;2.20;1.23;;;27.90;32.20;;;;;;5089439;28;20431;-49
2022/08/12 10:33:39;;;;;;;4.13;1.17;;;27.80;32.10;;;;;;5092475;28;20451;-50
2022/08/12 10:36:11;;;;;;;2.60;1.03;;;27.80;32.30;;;;;;5099367;28;20604;-51
2022/08/12 10:38:41;;;;;;;5.13;1.50;;;27.90;31.70;;;;;;5095204;28;20435;-50
2022/08/12 10:44:04;;;;;;;2.27;1.17;;;27.80;30.80;;;;;;5094903;28;20341;-50
2022/08/12 10:46:35;;;;;;;6.23;1.30;;;27.70;31.60;;;;;;5096471;28;20479;-50
2022/08/12 10:49:05;;;;;;;1.90;1.30;;;27.70;31.80;;;;;;5093195;28;20435;-51
2022/08/12 10:51:37;;;;;;;1.07;1.07;;;27.70;31.80;;;;;;5101085;29;20439;-51
2022/08/12 10:54:10;;;;;;;2.60;1.30;;;27.70;31.90;;;;;;5113583;28;20187;-50
2022/08/12 10:56:44;;;;;;;5.80;1.83;;;27.70;32.20;;;;;;5095039;28;21832;-50
2022/08/12 10:59:16;;;;;;;5.83;1.50;;;27.80;32.60;;;;;;5100303;28;20439;-51
2022/08/12 11:01:48;;;;;;;6.27;1.10;;;27.90;32.20;;;;;;5099748;29;20480;-50
2022/08/12 11:04:18;;;;;;;2.03;1.77;;;28.10;31.70;;;;;;5098865;28;20454;-50
2022/08/12 11:06:52;;;;;;;5.70;1.40;;;27.80;31.20;;;;;;5092631;28;20470;-50
2022/08/12 11:09:30;;;;;;;1.73;1.00;;;28.10;31.40;;;;;;5097103;28;20670;-52
2022/08/12 11:12:06;;;;;;;3.50;1.27;;;28.20;31.50;;;;;;5100080;29;20528;-51
2022/08/12 11:14:40;;;;;;;4.70;1.60;;;28.00;31.60;;;;;;5096761;28;20434;-51
2022/08/12 11:17:12;;;;;;;1.03;1.03;;;28.00;31.70;;;;;;5114519;28;20437;-50
2022/08/12 11:19:44;;;;;;;0.90;0.90;;;28.00;31.70;;;;;;5086533;28;20501;-50
2022/08/12 11:22:14;;;;;;;2.97;1.70;;;27.90;31.90;;;;;;5100447;28;20462;-50
2022/08/12 11:24:45;;;;;;;5.93;1.07;;;27.90;32.20;;;;;;5104041;28;20779;-49
2022/08/12 11:27:16;;;;;;;4.73;2.00;;;27.90;32.10;;;;;;5110457;29;20179;-50
2022/08/12 11:29:46;;;;;;;1.40;1.30;;;27.80;32.30;;;;;;5100192;28;20255;-49
2022/08/12 11:32:17;;;;;;;1.87;1.23;;;27.90;31.90;;;;;;5098858;28;20199;-50
2022/08/12 11:34:48;;;;;;;1.70;1.60;;;28.00;32.00;;;;;;5108125;28;20176;-49
2022/08/12 11:37:18;;;;;;;1.33;1.13;;;28.30;31.80;;;;;;5098642;28;20620;-50
2022/08/12 11:39:49;;;;;;;1.70;0.90;;;28.50;31.30;;;;;;5095181;28;20246;-51
2022/08/12 11:42:19;;;;;;;1.03;1.03;;;28.60;30.90;;;;;;5101193;28;20217;-50
2022/08/12 11:44:50;;;;;;;1.40;1.30;;;28.70;31.30;;;;;;5096025;28;20221;-50
2022/08/12 11:47:21;;;;;;;2.10;1.30;;;28.90;30.80;;;;;;5103116;28;20195;-50
2022/08/12 11:49:51;;;;;;;1.37;1.13;;;28.70;30.80;;;;;;5097568;28;20301;-50
2022/08/12 11:52:22;;;;;;;1.90;1.30;;;28.60;31.70;;;;;;5129862;28;20206;-50
2022/08/12 11:54:53;;;;;;;1.30;1.30;;;28.50;31.90;;;;;;5098028;28;20187;-50
2022/08/12 11:57:23;;;;;;;1.43;0.90;;;28.60;31.50;;;;;;5092992;28;20280;-50
2022/08/12 11:59:54;;;;;;;1.57;1.00;;;28.70;31.30;;;;;;5091561;28;20253;-51
2022/08/12 12:02:27;;;;;;;1.07;1.07;;;28.80;31.40;;;;;;5100141;29;20608;-49
2022/08/12 12:04:58;;;;;;;14.50;1.40;;;29.00;31.10;;;;;;5101995;28;20612;-49
2022/08/12 12:07:29;;;;;;;5.00;2.20;;;29.00;31.00;;;;;;5098145;28;20522;-50
2022/08/12 12:10:02;;;;;;;4.03;1.57;;;29.00;31.30;;;;;;5093935;28;20194;-50
2022/08/12 12:12:33;;;;;;;6.13;1.27;;;29.10;31.20;;;;;;5093870;29;20203;-50
2022/08/12 12:15:05;;;;;;;3.67;1.33;;;29.10;31.20;;;;;;5106396;28;20485;-50
2022/08/12 12:17:48;;;;;;;3.43;1.50;;;29.20;30.80;;;;;;5101414;28;20729;-50
2022/08/12 12:20:19;;;;;;;1.30;1.30;;;29.10;30.80;;;;;;5100772;29;20521;-50
2022/08/12 12:22:49;;;;;;;1.07;1.07;;;29.20;31.00;;;;;;5098740;28;20574;-50
2022/08/12 12:25:20;;;;;;;0.93;0.93;;;29.20;30.70;;;;;;5099985;28;20253;-51
2022/08/12 12:27:52;;;;;;;2.50;0.90;;;29.20;30.40;;;;;;5097161;28;20512;-51
2022/08/12 12:30:23;;;;;;;1.10;1.10;;;29.10;30.00;;;;;;5100222;28;20187;-50
2022/08/12 12:32:54;;;;;;;1.23;1.23;;;29.10;30.30;;;;;;5098616;28;20480;-51
2022/08/12 12:35:27;;;;;;;1.20;1.17;;;29.20;30.80;;;;;;5091943;28;20195;-49
2022/08/12 12:38:10;;;;;;;1.50;1.00;;;29.20;30.20;;;;;;5098156;28;20202;-52
2022/08/12 12:40:43;;;;;;;1.13;1.00;;;29.30;30.20;;;;;;5100002;28;20897;-52
2022/08/12 12:43:17;;;;;;;2.20;1.13;;;29.30;30.30;;;;;;5100953;28;20468;-50
2022/08/12 12:45:49;;;;;;;1.17;1.17;;;29.40;30.10;;;;;;5103748;28;21025;-50
2022/08/12 12:48:20;;;;;;;14.07;1.33;;;29.40;30.00;;;;;;5094039;28;20448;-50
2022/08/12 12:53:46;;;;;;;0.70;0.70;;;29.10;30.40;;;;;;5105786;28;20825;-51
2022/08/12 12:56:21;;;;;;;0.83;0.83;;;29.10;30.40;;;;;;5094660;28;21224;-50
2022/08/12 12:58:53;;;;;;;1.27;0.93;;;29.20;30.20;;;;;;5109976;28;20934;-50
2022/08/12 13:01:24;;;;;;;2.83;0.77;;;29.20;30.00;;;;;;5099958;28;20439;-50
2022/08/12 13:03:56;;;;;;;1.13;1.13;;;29.20;30.00;;;;;;5202382;23;20529;-49
2022/08/12 13:06:28;;;;;;;3.13;1.10;;;29.10;29.90;;;;;;5200232;28;20508;-48
2022/08/12 13:09:00;;;;;;;3.40;0.87;;;29.10;30.10;;;;;;5202401;28;20589;-50
2022/08/12 13:11:31;;;;;;;4.50;1.53;;;29.00;30.40;;;;;;5198020;28;20434;-47
2022/08/12 13:14:02;;;;;;;1.33;1.23;;;29.20;30.10;;;;;;5203766;28;20748;-50
2022/08/12 13:16:32;;;;;;;1.60;1.13;;;29.60;30.00;;;;;;5202750;28;20655;-48
2022/08/12 13:19:03;;;;;;;2.37;1.33;;;29.80;29.70;;;;;;5194955;28;20264;-49
2022/08/12 13:21:34;;;;;;;1.37;1.30;;;29.90;30.00;;;;;;5197556;28;20666;-49
2022/08/12 13:24:04;;;;;;;1.70;1.60;;;29.90;29.80;;;;;;5195359;28;20210;-49
2022/08/12 13:26:39;;;;;;;4.00;1.10;;;29.90;29.80;;;;;;5197989;28;20207;-49
2022/08/12 13:29:11;;;;;;;3.17;1.50;;;29.70;30.00;;;;;;5201938;28;20678;-49
2022/08/12 13:31:42;;;;;;;1.40;1.30;;;29.50;30.60;;;;;;5202061;28;20439;-49
2022/08/12 13:34:13;;;;;;;1.20;1.10;;;29.60;30.60;;;;;;5203151;28;20460;-49
2022/08/12 13:36:45;;;;;;;1.00;1.00;;;29.40;30.50;;;;;;5205209;28;20213;-49
2022/08/12 13:39:15;;;;;;;2.77;1.53;;;29.40;30.40;;;;;;5204855;28;20278;-51
2022/08/12 13:41:46;;;;;;;1.00;0.80;;;29.40;30.10;;;;;;5199658;28;20519;-49
2022/08/12 13:44:17;;;;;;;1.73;1.63;;;29.30;30.40;;;;;;5205087;28;20731;-51
2022/08/12 13:46:48;;;;;;;0.97;0.97;;;29.20;30.80;;;;;;5204119;28;20207;-51
2022/08/12 13:49:18;;;;;;;2.33;1.10;;;29.30;30.90;;;;;;5191981;28;20207;-48
2022/08/12 13:51:52;;;;;;;2.23;1.33;;;29.40;30.90;;;;;;5201270;28;20188;-49
2022/08/12 13:54:23;;;;;;;3.40;0.80;;;29.50;30.60;;;;;;5201416;28;20195;-49
2022/08/12 13:56:54;;;;;;;2.87;1.00;;;29.40;30.70;;;;;;5203138;28;20500;-51
2022/08/12 13:59:24;;;;;;;0.70;0.70;;;29.30;30.90;;;;;;5205710;28;20184;-49
2022/08/12 14:01:56;;;;;;;1.07;1.07;;;29.40;31.10;;;;;;5196888;28;20433;-51
2022/08/12 14:04:26;;;;;;;4.93;1.43;;;29.40;30.90;;;;;;5201709;28;20702;-50
2022/08/12 14:07:01;;;;;;;1.20;1.20;;;29.30;31.00;;;;;;5204193;28;20497;-50
2022/08/12 14:10:35;;;;;;;6.37;1.40;;;29.50;31.10;;;;;;5192928;28;20195;-54
2022/08/12 14:12:22;;;;;;;3.23;1.50;;;29.60;31.30;;;;;;5195147;28;20545;-54
2022/08/12 14:14:53;;;;;;;1.57;1.13;;;29.60;31.80;;;;;;5198598;28;20524;-50
2022/08/12 14:17:23;;;;;;;2.53;1.07;;;29.40;30.90;;;;;;5191813;28;20250;-49
2022/08/12 14:20:12;;;;;;;2.83;1.30;;;29.20;31.30;;;;;;5209107;28;24692;-50
2022/08/12 14:22:43;;;;;;;1.03;0.93;;;29.20;31.60;;;;;;5194664;28;20214;-55
2022/08/12 14:25:15;;;;;;;1.30;1.20;;;29.00;31.70;;;;;;5209510;28;20975;-50
2022/08/12 14:27:46;;;;;;;1.33;1.10;;;28.90;31.90;;;;;;5197424;28;20473;-49
2022/08/12 14:30:16;;;;;;;1.40;1.30;;;28.70;31.90;;;;;;5188568;28;20550;-51
2022/08/12 14:32:47;;;;;;;2.33;1.30;;;28.70;32.10;;;;;;5201390;28;20671;-49
2022/08/12 14:35:18;;;;;;;1.30;1.20;;;28.60;32.10;;;;;;5197681;28;20258;-53
2022/08/12 14:37:49;;;;;;;5.30;1.03;;;28.60;32.10;;;;;;5216612;28;20188;-51
2022/08/12 14:40:19;;;;;;;1.00;1.00;;;28.50;31.80;;;;;;5196174;28;20199;-50
2022/08/12 14:42:50;;;;;;;2.70;1.70;;;28.40;32.20;;;;;;5198277;28;20211;-50
2022/08/12 14:45:23;;;;;;;1.83;1.63;;;28.30;32.00;;;;;;5203146;28;20294;-50
2022/08/12 14:47:55;;;;;;;1.67;1.57;;;28.20;32.10;;;;;;5197389;28;20649;-48
2022/08/12 14:50:25;;;;;;;3.00;1.23;;;28.10;32.30;;;;;;5199263;28;20532;-48
2022/08/12 14:52:59;;;;;;;4.97;1.40;;;28.00;31.80;;;;;;5202269;28;20508;-50
2022/08/12 14:55:32;;;;;;;1.43;1.33;;;28.00;32.20;;;;;;5200539;28;20199;-49
2022/08/12 14:58:03;;;;;;;4.53;1.30;;;28.00;32.40;;;;;;5201757;28;20430;-49
2022/08/12 15:03:28;;;;;;;1.20;1.20;;;27.90;32.30;;;;;;5195845;28;20496;-49
2022/08/12 15:06:02;;;;;;;2.17;0.90;;;28.00;32.30;;;;;;5197014;28;20934;-48
2022/08/12 15:08:40;;;;;;;1.90;1.03;;;28.10;32.20;;;;;;5196255;28;20433;-49